Catàleg de serveis del Meteocat
Campanya meteocatpedra

Dades de l'estació automàtica Ascó

?
?
Resum diari 21:30 TU
Dades diàries de l'estació meteorològica
Temperatura mitjana 10.2 °C
Temperatura màxima 14.0 °C 14:40 TU
Temperatura mínima 7.8 °C 8:43 TU
Humitat relativa mitjana 77%
Precipitació acumulada 9.2 mm
Ratxa màxima del vent (2 m) 33.8 km/h - 307º 16:54 TU
Irradiació solar global 6.0 MJ/m2

El tram horari està expressat en Temps Universal (TU). Cal sumar una hora en horari d'hivern i dues en horari d'estiu per passar a l'hora oficial.

Ascó

Metadades estació meteorol´gica
Municipi Ascó
Comarca Ribera d'Ebre
Altitud 257 m
Data alta 15.06.1998
Estat actual Operativa
Dades de període
Període
TU
TM
°C
TX
°C
TN
°C
HRM
%
PPT
mm
VVM (2 m)
km/h
DVM (2 m)
graus
VVX (2 m)
km/h
RS
W/m2
00:00 - 00:30 10.9 11.0 10.6 64 0.0 9.4 326 24.1 0
00:30 - 01:00 10.5 10.7 10.3 66 0.0 5.8 308 20.2 0
01:00 - 01:30 10.4 10.6 10.2 67 0.0 4.7 297 17.6 0
01:30 - 02:00 10.5 10.6 10.4 67 0.0 6.1 253 16.9 0
02:00 - 02:30 10.4 10.7 10.0 67 0.0 4.0 255 16.9 0
02:30 - 03:00 9.6 10.0 9.3 72 0.0 1.1 178 5.8 0
03:00 - 03:30 9.4 9.6 9.1 73 0.0 0.7 28 3.6 0
03:30 - 04:00 9.1 9.3 9.0 75 0.0 1.4 200 4.0 0
04:00 - 04:30 9.1 9.3 9.0 76 0.0 2.5 220 5.4 0
04:30 - 05:00 9.3 9.4 8.8 76 0.0 1.8 232 6.1 0
05:00 - 05:30 8.5 8.8 8.3 88 0.2 1.8 349 4.7 0
05:30 - 06:00 8.1 8.3 8.0 94 0.4 1.4 243 4.0 0
06:00 - 06:30 8.1 8.1 8.0 97 0.5 1.8 245 3.6 0
06:30 - 07:00 8.0 8.0 8.0 97 0.4 1.4 239 4.0 1
07:00 - 07:30 8.0 8.1 8.0 98 0.4 0.0 0 0.0 6
07:30 - 08:00 7.9 8.1 7.8 97 0.4 0.0 0 0.0 9
08:00 - 08:30 8.0 8.1 8.0 97 1.4 2.5 0 9.0 24
08:30 - 09:00 7.9 8.1 7.8 97 2.4 4.0 347 12.6 20
09:00 - 09:30 8.2 8.3 8.1 97 1.9 2.5 328 10.4 32
09:30 - 10:00 8.5 8.8 8.3 97 1.1 2.9 302 12.6 99
10:00 - 10:30 9.0 9.3 8.8 95 0.1 3.6 291 11.2 156
10:30 - 11:00 9.5 10.0 9.2 93 0.0 5.0 316 15.8 223
11:00 - 11:30 9.7 10.4 9.4 91 0.0 6.8 281 19.4 324
11:30 - 12:00 10.4 10.7 10.1 87 0.0 6.5 297 19.4 300
12:00 - 12:30 10.4 10.7 10.1 87 0.0 4.7 289 14.0 180
12:30 - 13:00 11.0 11.8 10.6 85 0.0 5.8 293 15.8 347
13:00 - 13:30 12.2 12.6 11.9 80 0.0 5.8 294 16.9 488
13:30 - 14:00 12.5 13.0 12.1 77 0.0 3.6 325 10.8 349
14:00 - 14:30 12.9 13.8 12.3 76 0.0 2.9 201 13.0 261
14:30 - 15:00 13.7 14.0 13.3 71 0.0 5.4 316 19.8 266
15:00 - 15:30 13.6 13.7 13.4 59 0.0 7.9 290 22.3 206
15:30 - 16:00 13.3 13.4 13.1 57 0.0 10.8 299 32.0 42
16:00 - 16:30 12.9 13.1 12.7 56 0.0 11.9 287 29.9 16
16:30 - 17:00 12.4 12.6 12.2 61 0.0 10.4 307 33.8 4
17:00 - 17:30 12.2 12.5 12.0 61 0.0 12.6 318 28.8 0
17:30 - 18:00 11.9 12.2 11.7 62 0.0 11.2 297 31.7 0
18:00 - 18:30 11.6 11.8 11.1 62 0.0 10.1 284 26.3 0
18:30 - 19:00 11.1 11.4 10.8 64 0.0 9.4 277 28.4 0
19:00 - 19:30 10.8 11.1 10.6 66 0.0 8.6 270 19.4 0
19:30 - 20:00 10.7 11.2 10.3 68 0.0 7.6 263 19.8 0
20:00 - 20:30 9.9 10.3 9.8 71 0.0 5.8 256 17.6 0
20:30 - 21:00 9.6 10.0 9.3 73 0.0 5.0 257 13.7 0
21:00 - 21:30 9.3 9.4 9.1 74 0.0 5.4 268 13.0 0
21:30 - 22:00 10.0 10.2 9.6 69 0.0 5.8 259 16.2 0

Les dades en taronja només han passat un control de qualitat automàtic. Resta pendent la seva validació definitiva.